Terminal Aerodrome Forecast
Issued by NWS

Home | Current Version | Previous Version | Text Only | Print | Product List | Glossary On
Versions: 1 2 3 4 5 6 7 8 9 10 11 12 13 14 15 16 17
043
FTAK31 PAJN 251739
TAFAWG
TAF
PAWG 251739Z 2518/2618 27008KT P6SM FEW035 SCT050 BKN080
     FM260600 28003KT P6SM SCT050
     FM261400 00000KT P6SM VCFG BKN050
      AMD LTD TO CLD VIS AND WIND 2606/2615=

USA.gov is the U.S. government's official web portal to all federal, state and local government web resources and services.